createdAt,value
2022-09-30T00:00:25.397Z,1.4
2022-09-30T00:01:35.212Z,1
2022-09-30T00:02:42.904Z,1.3
2022-09-30T00:03:52.536Z,1.2
2022-09-30T00:05:02.229Z,1.2
2022-09-30T00:06:11.939Z,1.5
2022-09-30T00:07:21.688Z,1.4
2022-09-30T00:08:30.347Z,1.3
2022-09-30T00:09:39.117Z,1.5
2022-09-30T00:10:48.777Z,1.5
2022-09-30T00:11:58.474Z,1.5
2022-09-30T00:13:07.228Z,1.3
2022-09-30T00:14:16.897Z,1.4
2022-09-30T00:15:25.643Z,1.3
2022-09-30T00:16:35.381Z,1.3
2022-09-30T00:17:44.028Z,1.2
2022-09-30T00:18:51.711Z,1.4
2022-09-30T00:20:01.394Z,1.3
2022-09-30T00:21:11.115Z,1.3
2022-09-30T00:22:20.851Z,1.3
2022-09-30T00:23:30.534Z,1
2022-09-30T00:24:39.371Z,1.5
2022-09-30T00:25:49.322Z,1.5
2022-09-30T00:26:58.015Z,1.2
2022-09-30T00:28:07.742Z,1.4
2022-09-30T00:29:17.545Z,1.3
2022-09-30T00:30:25.123Z,1.5
2022-09-30T00:31:35.013Z,1.2
2022-09-30T00:32:44.541Z,1.1
2022-09-30T00:33:52.244Z,1.1
2022-09-30T00:35:01.955Z,1.3
2022-09-30T00:36:10.640Z,1.4
2022-09-30T00:37:19.352Z,1.5
2022-09-30T00:38:28.246Z,1.2
2022-09-30T00:39:36.925Z,1.1
2022-09-30T00:40:45.626Z,1.4
2022-09-30T00:41:55.319Z,1.4
2022-09-30T00:43:03.009Z,1.6
2022-09-30T00:49:02.780Z,1.4
2022-09-30T00:50:11.350Z,1.2
2022-09-30T00:51:20.037Z,1.3
2022-09-30T00:52:29.728Z,1.5
2022-09-30T00:53:37.423Z,1.2
2022-09-30T00:54:46.134Z,1.5
2022-09-30T00:55:55.797Z,1.3
2022-09-30T00:57:03.491Z,1.3
2022-09-30T00:58:13.159Z,1.4
2022-09-30T00:59:20.878Z,1.3
2022-09-30T01:00:28.637Z,1.2
2022-09-30T01:01:38.316Z,1.7
2022-09-30T01:02:46.954Z,1.3
2022-09-30T01:03:56.633Z,1.5
2022-09-30T01:05:06.320Z,1.2
2022-09-30T01:06:14.980Z,1.6
2022-09-30T01:07:24.727Z,1.6
2022-09-30T01:08:34.344Z,1.4
2022-09-30T01:09:43.168Z,1.6
2022-09-30T01:10:52.773Z,1.3
2022-09-30T01:12:01.469Z,1.8
2022-09-30T01:13:10.154Z,1.4
2022-09-30T01:14:19.834Z,1.5
2022-09-30T01:15:27.493Z,1.3
2022-09-30T01:16:37.240Z,1.3
2022-09-30T01:17:45.895Z,1.9
2022-09-30T01:18:54.559Z,1.4
2022-09-30T01:20:04.247Z,1.3
2022-09-30T01:21:12.942Z,1.4
2022-09-30T01:22:22.603Z,1.6
2022-09-30T01:23:32.270Z,1.6
2022-09-30T01:24:40.948Z,1.3
2022-09-30T01:25:50.646Z,1.4
2022-09-30T01:26:59.329Z,1.6
2022-09-30T01:28:07.000Z,1.2
2022-09-30T01:29:16.699Z,1.5
2022-09-30T01:30:25.366Z,1.2
2022-09-30T01:31:35.064Z,1.5
2022-09-30T01:32:43.703Z,1.7
2022-09-30T01:33:52.367Z,1.6
2022-09-30T01:35:02.095Z,1.2
2022-09-30T01:36:09.755Z,1.4
2022-09-30T01:37:17.454Z,1.1
2022-09-30T01:38:28.112Z,1.5
2022-09-30T01:39:35.808Z,1.3
2022-09-30T01:40:45.542Z,1.6
2022-09-30T01:41:55.216Z,1.2
2022-09-30T01:43:04.895Z,1.6
2022-09-30T01:44:14.562Z,1.6
2022-09-30T01:45:24.240Z,1.4
2022-09-30T01:46:31.967Z,1.6
2022-09-30T01:47:41.590Z,1.4
2022-09-30T01:48:50.267Z,1.3
2022-09-30T01:49:59.938Z,1.3
2022-09-30T01:51:09.605Z,1.3
2022-09-30T01:52:18.298Z,1.6
2022-09-30T01:53:27.985Z,1.6
2022-09-30T01:54:36.655Z,1.5
2022-09-30T01:55:46.356Z,1.4
2022-09-30T01:56:56.022Z,1.3
2022-09-30T01:58:04.709Z,1.2
2022-09-30T01:59:13.394Z,1.5
2022-09-30T02:00:20.025Z,1.3
2022-09-30T02:01:28.689Z,1.3
2022-09-30T02:02:38.368Z,1.1
2022-09-30T02:03:46.062Z,1.2
2022-09-30T02:04:55.761Z,1.9
2022-09-30T02:06:05.437Z,1.1
2022-09-30T02:07:13.104Z,1.3
2022-09-30T02:08:22.766Z,1.2
2022-09-30T02:09:32.596Z,1.3
2022-09-30T02:10:42.172Z,1
2022-09-30T02:11:51.848Z,1.1
2022-09-30T02:12:59.538Z,1
2022-09-30T02:14:09.219Z,1.1
2022-09-30T02:15:18.934Z,1
2022-09-30T02:16:26.666Z,1.4
2022-09-30T02:17:36.260Z,1.2
2022-09-30T02:18:43.942Z,1.2
2022-09-30T02:19:52.604Z,0.8
2022-09-30T02:21:02.418Z,1.1
2022-09-30T02:22:10.087Z,1.1
2022-09-30T02:23:19.766Z,0.8
2022-09-30T02:24:29.416Z,1
2022-09-30T02:25:37.103Z,0.9
2022-09-30T02:26:46.776Z,0.9
2022-09-30T02:27:55.448Z,1.3
2022-09-30T02:29:04.110Z,1.1
2022-09-30T02:30:13.793Z,1.2
2022-09-30T02:31:22.504Z,0.8
2022-09-30T02:32:32.144Z,1
2022-09-30T02:33:40.793Z,0.9
2022-09-30T02:34:48.482Z,1
2022-09-30T02:35:58.160Z,1.2
2022-09-30T02:37:07.848Z,1.3
2022-09-30T02:38:17.581Z,1.2
2022-09-30T02:39:27.237Z,1
2022-09-30T02:40:35.910Z,1
2022-09-30T02:41:45.608Z,1.1
2022-09-30T02:42:54.245Z,1.1
2022-09-30T02:44:01.960Z,1.1
2022-09-30T02:45:11.666Z,1.3
2022-09-30T02:46:19.357Z,1.2
2022-09-30T02:47:28.030Z,1.4
2022-09-30T02:48:37.718Z,0.8
2022-09-30T02:49:45.398Z,1
2022-09-30T02:50:55.080Z,1.4
2022-09-30T02:52:04.746Z,1.2
2022-09-30T02:53:13.420Z,1
2022-09-30T02:54:23.102Z,0.8
2022-09-30T02:55:30.792Z,1.2
2022-09-30T02:56:40.490Z,1
2022-09-30T02:57:50.191Z,1
2022-09-30T02:58:59.858Z,0.7
2022-09-30T03:00:12.872Z,0.8
2022-09-30T03:01:19.333Z,1.1
2022-09-30T03:02:27.932Z,0.9
2022-09-30T03:03:37.613Z,0.9
2022-09-30T03:04:46.292Z,1.2
2022-09-30T03:05:54.984Z,1.3
2022-09-30T03:07:04.735Z,1.1
2022-09-30T03:08:12.462Z,0.9
2022-09-30T03:09:22.365Z,1.3
2022-09-30T03:10:31.843Z,0.9
2022-09-30T03:11:39.507Z,1.2
2022-09-30T03:12:49.227Z,0.9
2022-09-30T03:13:58.111Z,1
2022-09-30T03:15:07.597Z,1
2022-09-30T03:16:17.333Z,1
2022-09-30T03:17:24.956Z,1.5
2022-09-30T03:18:34.660Z,1.2
2022-09-30T03:19:43.326Z,0.9
2022-09-30T03:20:52.014Z,1.2
2022-09-30T03:22:01.671Z,1.2
2022-09-30T03:23:09.334Z,1.2
2022-09-30T03:24:19.255Z,1.4
2022-09-30T03:25:28.928Z,1.8
2022-09-30T03:26:36.621Z,1.2
2022-09-30T03:27:46.287Z,1.1
2022-09-30T03:28:54.961Z,1.1
2022-09-30T03:30:03.680Z,1.8
2022-09-30T03:31:13.394Z,1.7
2022-09-30T03:32:21.015Z,0.7
2022-09-30T03:33:29.682Z,1.4
2022-09-30T03:34:39.325Z,1.2
2022-09-30T03:35:48.008Z,1.1
2022-09-30T03:36:59.518Z,1.3
2022-09-30T03:38:07.339Z,1.1
2022-09-30T03:39:14.985Z,1.3
2022-09-30T03:40:24.682Z,1.1
2022-09-30T03:41:32.379Z,1
2022-09-30T03:42:42.106Z,0.9
2022-09-30T03:43:51.780Z,1
2022-09-30T03:45:00.467Z,1.5
2022-09-30T03:46:10.236Z,1.1
2022-09-30T03:47:19.864Z,1.3
2022-09-30T03:48:28.541Z,1.1
2022-09-30T03:49:38.209Z,1.2
2022-09-30T03:50:45.893Z,1.2
2022-09-30T03:51:54.546Z,1.1
2022-09-30T03:53:04.240Z,1.2
2022-09-30T03:54:12.929Z,1.3
2022-09-30T03:55:22.617Z,1.1
2022-09-30T03:56:30.268Z,1.2
2022-09-30T03:57:39.952Z,1.2
2022-09-30T03:58:49.644Z,1.4
2022-09-30T03:59:56.303Z,1.5
2022-09-30T04:01:06.031Z,1.3
2022-09-30T04:02:14.724Z,1.1
2022-09-30T04:03:23.322Z,1.6
2022-09-30T04:04:32.993Z,3
2022-09-30T04:05:40.662Z,3.4
2022-09-30T04:06:50.371Z,3.5
2022-09-30T04:07:59.057Z,2.8
2022-09-30T04:09:08.771Z,2.8
2022-09-30T04:10:18.452Z,2.1
2022-09-30T04:11:26.116Z,1.5
2022-09-30T04:12:34.777Z,1.6
2022-09-30T04:13:44.460Z,1.1
2022-09-30T04:14:52.132Z,1.5
2022-09-30T04:16:01.929Z,1.6
2022-09-30T04:17:10.566Z,1.6
2022-09-30T04:18:19.294Z,2
2022-09-30T04:19:28.979Z,1.8
2022-09-30T04:20:36.657Z,2.2
2022-09-30T04:21:45.334Z,1.8
2022-09-30T04:22:55.020Z,2
2022-09-30T04:24:03.689Z,1.9
2022-09-30T04:25:13.397Z,1.6
2022-09-30T04:26:22.092Z,1.8
2022-09-30T04:27:29.852Z,2.4
2022-09-30T04:28:39.521Z,2.5
2022-09-30T04:29:49.231Z,2.8
2022-09-30T04:30:57.903Z,2
2022-09-30T04:32:07.592Z,2.5
2022-09-30T04:33:16.295Z,2.4
2022-09-30T04:34:26.012Z,3.1
2022-09-30T04:35:34.677Z,2.3
2022-09-30T04:36:42.344Z,2
2022-09-30T04:37:52.052Z,1.7
2022-09-30T04:38:59.729Z,2.3
2022-09-30T04:40:08.403Z,2.8
2022-09-30T04:41:18.098Z,2
2022-09-30T04:42:25.738Z,2.1
2022-09-30T04:43:35.434Z,2.6
2022-09-30T04:44:44.147Z,2.1
2022-09-30T04:45:51.844Z,2
2022-09-30T04:47:00.539Z,2.2
2022-09-30T04:48:09.218Z,2.1
2022-09-30T04:49:17.921Z,1.4
2022-09-30T04:50:27.644Z,1.6
2022-09-30T04:51:36.297Z,1.4
2022-09-30T04:52:45.999Z,1.5
2022-09-30T04:53:55.691Z,1.2
2022-09-30T04:55:05.389Z,1.2
2022-09-30T04:56:14.104Z,1.5
2022-09-30T04:57:22.794Z,1.2
2022-09-30T04:58:36.772Z,1.1
2022-09-30T04:59:42.232Z,1.4
2022-09-30T05:00:49.953Z,1.9
2022-09-30T05:01:59.677Z,1.5
2022-09-30T05:03:09.343Z,1.6
2022-09-30T05:04:18.030Z,1.7
2022-09-30T05:05:27.708Z,1.3
2022-09-30T05:06:36.490Z,1.2
2022-09-30T05:07:46.128Z,1.7
2022-09-30T05:08:55.787Z,1.2
2022-09-30T05:10:03.451Z,1.2
2022-09-30T05:11:12.141Z,1.5
2022-09-30T05:12:21.806Z,1.3
2022-09-30T05:13:30.509Z,1.5
2022-09-30T05:14:40.205Z,1.4
2022-09-30T05:15:49.077Z,1.4
2022-09-30T05:16:58.731Z,1.3
2022-09-30T05:18:08.415Z,1.7
2022-09-30T05:19:16.177Z,2
2022-09-30T05:20:25.855Z,1.4
2022-09-30T05:21:34.626Z,1.7
2022-09-30T05:22:44.365Z,1.2
2022-09-30T05:23:54.066Z,1.6
2022-09-30T05:25:03.759Z,1.4
2022-09-30T05:26:13.445Z,1.6
2022-09-30T05:27:23.132Z,1.5
2022-09-30T05:28:32.831Z,1.6
2022-09-30T05:29:42.564Z,1.6
2022-09-30T05:30:52.398Z,1.2
2022-09-30T05:32:01.166Z,1.2
2022-09-30T05:33:10.781Z,1.4
2022-09-30T05:34:18.468Z,1.7
2022-09-30T05:35:27.172Z,1.3
2022-09-30T05:36:36.905Z,1.5
2022-09-30T05:37:46.615Z,1.4
2022-09-30T05:38:56.273Z,1.4
2022-09-30T05:40:04.965Z,1.6
2022-09-30T05:41:12.626Z,1.8
2022-09-30T05:42:22.324Z,1.8
2022-09-30T05:43:30.026Z,1.8
2022-09-30T05:44:38.722Z,1.7
2022-09-30T05:45:48.435Z,1.8
2022-09-30T05:46:56.239Z,1.6
2022-09-30T05:48:06.878Z,1.5
2022-09-30T05:49:15.556Z,2
2022-09-30T05:50:23.527Z,2.1
2022-09-30T05:51:33.220Z,1.9
2022-09-30T05:52:42.920Z,1.9
2022-09-30T05:53:52.699Z,1.6
2022-09-30T05:55:01.363Z,1.2
2022-09-30T05:56:10.038Z,1.7
2022-09-30T05:57:19.729Z,1.2
2022-09-30T05:58:27.435Z,1
2022-09-30T05:59:37.137Z,1.5
2022-09-30T06:00:45.806Z,1.3
2022-09-30T06:01:54.588Z,1.5
2022-09-30T06:03:04.212Z,1
2022-09-30T06:04:12.823Z,1.7
2022-09-30T06:05:22.542Z,1.2
2022-09-30T06:06:32.249Z,1.7
2022-09-30T06:07:41.903Z,1.3
2022-09-30T06:08:51.606Z,1.9
2022-09-30T06:10:00.293Z,1.4
2022-09-30T06:11:08.987Z,1.6
2022-09-30T06:12:18.678Z,1.6
2022-09-30T06:13:28.368Z,1.5
2022-09-30T06:14:37.048Z,1.6
2022-09-30T06:15:46.736Z,1
2022-09-30T06:16:55.437Z,1.8
2022-09-30T06:18:05.167Z,1.5
2022-09-30T06:19:13.915Z,1.6
2022-09-30T06:20:23.607Z,1.4
2022-09-30T06:21:33.287Z,1.3
2022-09-30T06:22:41.995Z,1.4
2022-09-30T06:23:50.672Z,1.8
2022-09-30T06:25:00.346Z,1.7
2022-09-30T06:26:08.038Z,1.7
2022-09-30T06:27:17.685Z,1.7
2022-09-30T06:28:27.379Z,1.4
2022-09-30T06:29:35.029Z,1.2
2022-09-30T06:30:44.956Z,1.6
2022-09-30T06:31:52.603Z,1.4
2022-09-30T06:33:02.253Z,1.3
2022-09-30T06:34:12.080Z,1.3
2022-09-30T06:35:19.741Z,1.6
2022-09-30T06:36:29.410Z,1.2
2022-09-30T06:37:38.082Z,1.4
2022-09-30T06:38:47.748Z,1.5
2022-09-30T06:39:57.459Z,1
2022-09-30T06:41:06.153Z,2.5
2022-09-30T06:42:14.837Z,3.3
2022-09-30T06:43:24.494Z,1.7
2022-09-30T06:44:34.833Z,1.7
2022-09-30T06:45:43.907Z,0.9
2022-09-30T06:46:54.282Z,1
2022-09-30T06:48:02.239Z,1.3
2022-09-30T06:49:13.856Z,1.4
2022-09-30T06:50:25.610Z,1.5
2022-09-30T06:51:33.216Z,1.2
2022-09-30T06:52:42.897Z,1.5
2022-09-30T06:53:53.342Z,1.5
2022-09-30T06:55:01.221Z,1.9
2022-09-30T06:56:10.909Z,1.6
2022-09-30T06:57:18.639Z,1.9
2022-09-30T06:58:28.290Z,1.5
2022-09-30T06:59:36.942Z,1.8
2022-09-30T07:00:45.701Z,1.6
2022-09-30T07:01:55.379Z,1.7
2022-09-30T07:03:05.069Z,1.5
2022-09-30T07:04:14.789Z,1.6
2022-09-30T07:05:23.513Z,1.3
2022-09-30T07:06:32.186Z,1.8
2022-09-30T07:07:41.866Z,1.4
2022-09-30T07:08:49.568Z,1.7
2022-09-30T07:09:59.855Z,1.7
2022-09-30T07:11:08.897Z,2.1
2022-09-30T07:12:16.595Z,1.4
2022-09-30T07:13:26.286Z,1.3
2022-09-30T07:14:36.991Z,1.7
2022-09-30T07:15:46.709Z,1.4
2022-09-30T07:16:56.506Z,1.4
2022-09-30T07:18:04.108Z,1.4
2022-09-30T07:19:12.794Z,1.3
2022-09-30T07:20:22.483Z,1.2
2022-09-30T07:21:30.191Z,1.2
2022-09-30T07:22:39.882Z,1.4
2022-09-30T07:23:48.620Z,1.4
2022-09-30T07:24:57.246Z,1.7
2022-09-30T07:26:06.948Z,1.1
2022-09-30T07:27:14.666Z,1.5
2022-09-30T07:28:23.346Z,1.2
2022-09-30T07:29:44.572Z,1.4
2022-09-30T07:30:43.699Z,1
2022-09-30T07:31:53.484Z,1.2
2022-09-30T07:33:03.126Z,1.4
2022-09-30T07:34:11.821Z,1
2022-09-30T07:35:21.606Z,1.1
2022-09-30T07:36:32.987Z,1.3
2022-09-30T07:37:40.208Z,1.3
2022-09-30T07:38:49.904Z,1.2
2022-09-30T07:39:58.627Z,1.2
2022-09-30T07:41:08.319Z,1
2022-09-30T07:42:21.672Z,1.3
2022-09-30T07:43:26.741Z,1
2022-09-30T07:44:36.514Z,0.8
2022-09-30T07:45:44.279Z,0.8
2022-09-30T07:46:53.937Z,0.9
2022-09-30T07:48:03.643Z,1
2022-09-30T07:49:12.405Z,0.7
2022-09-30T07:50:22.143Z,1
2022-09-30T07:51:29.865Z,1.3
2022-09-30T07:52:39.602Z,0.9
2022-09-30T07:53:49.330Z,0.7
2022-09-30T07:54:58.070Z,0.8
2022-09-30T07:56:07.777Z,0.8
2022-09-30T07:57:17.474Z,1.2
2022-09-30T07:58:27.214Z,1
2022-09-30T07:59:36.890Z,0.7
2022-09-30T08:00:46.747Z,0.6
2022-09-30T08:01:55.454Z,0.7
2022-09-30T08:03:04.096Z,0.9
2022-09-30T08:04:11.781Z,1.4
2022-09-30T08:05:21.460Z,0.7
2022-09-30T08:06:30.161Z,0.6
2022-09-30T08:07:38.884Z,0.6
2022-09-30T08:08:48.583Z,0.3
2022-09-30T08:09:56.363Z,0.5
2022-09-30T08:11:05.964Z,0.3
2022-09-30T08:12:15.645Z,0.5
2022-09-30T08:13:24.340Z,0.3
2022-09-30T08:14:34.053Z,0.5
2022-09-30T08:15:41.738Z,0.4
2022-09-30T08:16:51.488Z,0.4
2022-09-30T08:18:01.141Z,0.7
2022-09-30T08:19:08.827Z,0.4
2022-09-30T08:20:22.205Z,0.6
2022-09-30T08:21:27.168Z,0.7
2022-09-30T08:22:34.872Z,0.6
2022-09-30T08:23:44.603Z,0.4
2022-09-30T08:24:52.352Z,0.5
2022-09-30T08:26:01.037Z,0.6
2022-09-30T08:27:10.768Z,0.4
2022-09-30T08:28:18.422Z,0.5
2022-09-30T08:29:54.244Z,0.2
2022-09-30T08:30:38.850Z,0.3
2022-09-30T08:31:46.563Z,0.5
2022-09-30T08:32:56.263Z,0.6
2022-09-30T08:34:05.933Z,0.5
2022-09-30T08:35:15.676Z,0.6
2022-09-30T08:36:25.380Z,0.5
2022-09-30T08:37:33.091Z,0.3
2022-09-30T08:38:42.794Z,0.3
2022-09-30T08:39:52.494Z,0.6
2022-09-30T08:41:01.448Z,0.3
2022-09-30T08:42:25.429Z,0.7
2022-09-30T08:43:19.794Z,0.5
2022-09-30T08:44:28.533Z,0.7
2022-09-30T08:45:38.313Z,0.4
2022-09-30T08:46:45.985Z,0.6
2022-09-30T08:47:55.664Z,0.5
2022-09-30T08:49:05.425Z,0.4
2022-09-30T08:50:14.095Z,0.3
2022-09-30T08:51:23.834Z,0.4
2022-09-30T08:52:44.988Z,0.6
2022-09-30T08:53:43.223Z,0.3
2022-09-30T08:54:52.950Z,0.3
2022-09-30T08:56:00.627Z,0.4
2022-09-30T08:57:10.340Z,0.6
2022-09-30T08:58:19.079Z,0.4
2022-09-30T08:59:28.797Z,0.4
2022-09-30T09:00:38.512Z,0.4
2022-09-30T09:01:47.247Z,0.3
2022-09-30T09:02:55.903Z,0.7
2022-09-30T09:04:05.619Z,0.3
2022-09-30T09:05:13.341Z,0.3
2022-09-30T09:06:22.989Z,0.2
2022-09-30T09:07:31.706Z,0.4
2022-09-30T09:08:39.402Z,0.3
2022-09-30T09:09:49.123Z,0.4
2022-09-30T09:10:57.773Z,0.5
2022-09-30T09:12:07.464Z,0.5
2022-09-30T09:13:17.163Z,0.5
2022-09-30T09:14:24.831Z,0.6
2022-09-30T09:15:34.572Z,0.7
2022-09-30T09:16:44.311Z,0.5
2022-09-30T09:18:11.260Z,0.5
2022-09-30T09:19:04.669Z,0.7
2022-09-30T09:20:13.345Z,0.7
2022-09-30T09:21:22.090Z,0.5
2022-09-30T09:22:32.777Z,0.3
2022-09-30T09:23:41.472Z,0.4
2022-09-30T09:24:51.192Z,0.4
2022-09-30T09:25:59.890Z,0.4
2022-09-30T09:27:08.591Z,0.3
2022-09-30T09:28:18.342Z,0.4
2022-09-30T09:29:27.964Z,0.4
2022-09-30T09:30:35.619Z,0.5
2022-09-30T09:31:45.333Z,0.5
2022-09-30T09:32:53.013Z,0.4
2022-09-30T09:34:02.680Z,0.3
2022-09-30T09:35:12.400Z,0.4
2022-09-30T09:36:22.069Z,0.2
2022-09-30T09:37:31.777Z,0.5
2022-09-30T09:38:40.457Z,0.3
2022-09-30T09:39:50.136Z,0.5
2022-09-30T09:40:59.792Z,0.3
2022-09-30T09:42:08.453Z,0.4
2022-09-30T09:43:18.127Z,0.5
2022-09-30T09:44:27.952Z,0.4
2022-09-30T09:45:36.677Z,0.5
2022-09-30T09:46:46.305Z,0.4
2022-09-30T09:47:55.986Z,0.9
2022-09-30T09:49:05.825Z,1.4
2022-09-30T09:50:14.503Z,1
2022-09-30T09:51:24.189Z,1
2022-09-30T09:52:33.899Z,1
2022-09-30T09:53:41.539Z,1.1
2022-09-30T09:54:51.239Z,1.3
2022-09-30T09:55:59.932Z,0.9
2022-09-30T09:57:07.629Z,1
2022-09-30T09:58:17.345Z,1.4
2022-09-30T09:59:26.207Z,1.5
2022-09-30T10:00:35.654Z,1
2022-09-30T10:01:45.454Z,1.2
2022-09-30T10:02:54.084Z,1.1
2022-09-30T10:04:03.766Z,0.8
2022-09-30T10:05:11.439Z,1.2
2022-09-30T10:06:19.114Z,1.1
2022-09-30T10:07:28.803Z,1.5
2022-09-30T10:08:36.613Z,1.7
2022-09-30T10:09:46.163Z,2
2022-09-30T10:10:55.870Z,1.8
2022-09-30T10:12:04.535Z,1.1
2022-09-30T10:13:14.243Z,1.1
2022-09-30T10:14:23.033Z,1.6
2022-09-30T10:15:31.581Z,1.1
2022-09-30T10:16:41.292Z,1
2022-09-30T10:17:48.958Z,1
2022-09-30T10:18:57.646Z,1.5
2022-09-30T10:20:07.337Z,1.7
2022-09-30T10:21:15.987Z,0.6
2022-09-30T10:22:25.688Z,0.3
2022-09-30T10:23:34.360Z,0.3
2022-09-30T10:24:42.145Z,0.5
2022-09-30T10:25:51.754Z,0.4
2022-09-30T10:27:00.414Z,0.5
2022-09-30T10:28:10.160Z,0.6
2022-09-30T10:29:19.757Z,0.7
2022-09-30T10:30:27.414Z,0.6
2022-09-30T10:31:37.139Z,0.5
2022-09-30T10:32:46.764Z,0.6
2022-09-30T10:33:56.428Z,0.4
2022-09-30T10:35:06.100Z,0.4
2022-09-30T10:36:13.787Z,0.4
2022-09-30T10:37:23.467Z,0.4
2022-09-30T10:38:33.185Z,0.4
2022-09-30T10:39:41.828Z,0.5
2022-09-30T10:40:51.563Z,0.5
2022-09-30T10:42:01.217Z,0.5
2022-09-30T10:43:08.886Z,0.4
2022-09-30T10:44:18.540Z,0.3
2022-09-30T10:45:27.199Z,0.4
2022-09-30T10:46:35.914Z,0.4
2022-09-30T10:47:45.794Z,0.8
2022-09-30T10:48:53.524Z,0.6
2022-09-30T10:50:03.186Z,0.7
2022-09-30T10:51:11.864Z,0.7
2022-09-30T10:52:19.514Z,0.6
2022-09-30T10:53:29.232Z,0.6
2022-09-30T10:54:36.889Z,0.9
2022-09-30T10:55:45.588Z,0.7
2022-09-30T10:56:55.286Z,0.8
2022-09-30T10:58:02.918Z,0.5
2022-09-30T10:59:12.618Z,0.6
2022-09-30T11:00:21.298Z,0.5
2022-09-30T11:01:30.468Z,0.5
2022-09-30T11:02:39.654Z,0.5
2022-09-30T11:03:49.425Z,0.6
2022-09-30T11:04:59.005Z,0.6
2022-09-30T11:06:08.656Z,0.8
2022-09-30T11:07:16.316Z,0.6
2022-09-30T11:08:25.992Z,0.6
2022-09-30T11:09:35.696Z,0.5
2022-09-30T11:10:44.409Z,0.4
2022-09-30T11:11:54.073Z,0.3
2022-09-30T11:13:02.801Z,0.5
2022-09-30T11:14:11.425Z,0.8
2022-09-30T11:15:21.101Z,0.6
2022-09-30T11:16:28.962Z,0.5
2022-09-30T11:17:38.446Z,0.7
2022-09-30T11:18:47.106Z,0.5
2022-09-30T11:19:55.782Z,0.6
2022-09-30T11:21:05.464Z,0.5
2022-09-30T11:22:13.191Z,0.9
2022-09-30T11:23:22.845Z,0.8
2022-09-30T11:24:32.531Z,0.5
2022-09-30T11:25:40.210Z,0.6
2022-09-30T11:26:49.881Z,0.4
2022-09-30T11:27:58.619Z,0.5
2022-09-30T11:29:07.283Z,0.4
2022-09-30T11:30:16.947Z,0.5
2022-09-30T11:31:24.650Z,0.5
2022-09-30T11:32:34.287Z,0.7
2022-09-30T11:33:43.991Z,0.7
2022-09-30T11:34:51.675Z,0.7
2022-09-30T11:36:01.395Z,0.6
2022-09-30T11:37:11.059Z,0.3
2022-09-30T11:38:20.731Z,0.4
2022-09-30T11:39:30.453Z,0.4
2022-09-30T11:40:38.098Z,0.5
2022-09-30T11:41:45.780Z,0.6
2022-09-30T11:42:55.446Z,0.6
2022-09-30T11:44:05.124Z,0.5
2022-09-30T11:45:14.882Z,0.4
2022-09-30T11:46:22.496Z,0.3
2022-09-30T11:47:32.193Z,0.4
2022-09-30T11:48:41.862Z,0.3
2022-09-30T11:49:50.541Z,0.3
2022-09-30T11:51:00.256Z,0.3
2022-09-30T11:52:08.966Z,0.5
2022-09-30T11:53:18.666Z,0.3
2022-09-30T11:54:28.345Z,0.4
2022-09-30T11:55:36.026Z,0.4
2022-09-30T11:56:45.748Z,0.3
2022-09-30T11:57:55.418Z,0.4
2022-09-30T11:59:04.101Z,0.4
2022-09-30T12:00:13.786Z,0.3
2022-09-30T12:01:22.499Z,0.4
2022-09-30T12:02:31.162Z,0.3
2022-09-30T12:03:40.852Z,0.3
2022-09-30T12:04:49.533Z,0.3
2022-09-30T12:05:59.195Z,0.4
2022-09-30T12:07:08.871Z,0.3
2022-09-30T12:08:17.539Z,0.4
2022-09-30T12:09:27.203Z,0.5
2022-09-30T12:10:35.899Z,0.7
2022-09-30T12:11:45.560Z,0.6
2022-09-30T12:12:55.242Z,0.5
2022-09-30T12:14:03.949Z,0.4
2022-09-30T12:15:13.628Z,0.6
2022-09-30T12:16:22.306Z,0.4
2022-09-30T12:17:30.022Z,0.5
2022-09-30T12:18:39.631Z,0.4
2022-09-30T12:19:48.345Z,0.4
2022-09-30T12:20:58.088Z,0.4
2022-09-30T12:22:07.752Z,0.4
2022-09-30T12:23:16.455Z,0.4
2022-09-30T12:24:25.117Z,0.3
2022-09-30T12:25:37.231Z,0.5
2022-09-30T12:26:44.474Z,0.5
2022-09-30T12:27:54.217Z,0.5
2022-09-30T12:29:03.989Z,0.5
2022-09-30T12:30:13.486Z,0.4
2022-09-30T12:31:23.262Z,0.4
2022-09-30T12:32:30.855Z,0.4
2022-09-30T12:33:40.580Z,0.3
2022-09-30T12:34:50.247Z,0.3
2022-09-30T12:35:57.982Z,0.4
2022-09-30T12:37:07.676Z,0.3
2022-09-30T12:38:16.428Z,0.2
2022-09-30T12:39:25.127Z,0.3
2022-09-30T12:40:34.802Z,0.6
2022-09-30T12:41:43.477Z,0.3
2022-09-30T12:42:53.180Z,0.3
2022-09-30T12:44:02.853Z,0.3
2022-09-30T12:45:10.906Z,0.3
2022-09-30T12:46:20.746Z,0.3
2022-09-30T12:47:28.382Z,0.3
2022-09-30T12:48:37.176Z,0.4
2022-09-30T12:49:46.889Z,0.3
2022-09-30T12:50:55.536Z,0.5
2022-09-30T12:52:05.216Z,0.5
2022-09-30T12:53:13.897Z,0.6
2022-09-30T12:54:22.638Z,0.8
2022-09-30T12:55:32.327Z,0.5
2022-09-30T12:56:40.001Z,0.3
2022-09-30T12:57:49.670Z,0.4
2022-09-30T12:58:58.369Z,0.4
2022-09-30T13:00:07.113Z,0.3
2022-09-30T13:01:16.915Z,0.5
2022-09-30T13:02:25.501Z,0.4
2022-09-30T13:03:34.154Z,0.3
2022-09-30T13:04:43.849Z,0.6
2022-09-30T13:05:52.602Z,0.7
2022-09-30T13:07:01.271Z,0.7
2022-09-30T13:08:10.968Z,0.4
2022-09-30T13:09:18.629Z,0.4
2022-09-30T13:10:28.315Z,0.5
2022-09-30T13:11:37.018Z,0.9
2022-09-30T13:12:45.720Z,1.1
2022-09-30T13:13:55.411Z,1
2022-09-30T13:15:03.086Z,0.8
2022-09-30T13:16:11.794Z,0.9
2022-09-30T13:17:21.492Z,0.6
2022-09-30T13:18:29.163Z,0.5
2022-09-30T13:19:38.845Z,0.7
2022-09-30T13:20:47.514Z,0.3
2022-09-30T13:21:55.199Z,0.7
2022-09-30T13:23:04.892Z,0.9
2022-09-30T13:24:13.612Z,1.4
2022-09-30T13:25:23.300Z,1.3
2022-09-30T13:26:33.311Z,0.8
2022-09-30T13:27:40.632Z,1.5
2022-09-30T13:28:50.345Z,1.3
2022-09-30T13:30:00.049Z,0.6
2022-09-30T13:31:08.716Z,0.7
2022-09-30T13:32:18.396Z,0.8
2022-09-30T13:33:27.083Z,0.5
2022-09-30T13:34:35.801Z,0.6
2022-09-30T13:35:45.476Z,1.2
2022-09-30T13:36:54.174Z,1.4
2022-09-30T13:38:03.912Z,0.9
2022-09-30T13:39:12.625Z,1.3
2022-09-30T13:40:32.866Z,1
2022-09-30T13:41:32.039Z,0.9
2022-09-30T13:42:41.723Z,0.6
2022-09-30T13:43:51.380Z,0.5
2022-09-30T13:45:01.069Z,0.6
2022-09-30T13:46:10.760Z,0.7
2022-09-30T13:47:20.396Z,0.5
2022-09-30T13:48:29.081Z,0.5
2022-09-30T13:49:38.762Z,0.6
2022-09-30T13:50:47.419Z,0.7
2022-09-30T13:51:56.221Z,0.6
2022-09-30T13:53:05.921Z,0.6
2022-09-30T13:54:13.554Z,0.4
2022-09-30T13:55:22.234Z,0.6
2022-09-30T13:56:32.284Z,0.6
2022-09-30T13:57:39.702Z,0.6
2022-09-30T13:58:49.377Z,0.7
2022-09-30T13:59:58.030Z,0.6
2022-09-30T14:01:06.764Z,0.4
2022-09-30T14:02:20.193Z,0.6
2022-09-30T14:03:25.181Z,0.6
2022-09-30T14:04:34.770Z,0.6
2022-09-30T14:05:44.430Z,0.6
2022-09-30T14:06:53.105Z,0.5
2022-09-30T14:08:02.784Z,0.5
2022-09-30T14:09:12.503Z,0.6
2022-09-30T14:10:20.139Z,0.4
2022-09-30T14:11:29.812Z,0.5
2022-09-30T14:12:37.490Z,0.4
2022-09-30T14:13:48.143Z,0.5
2022-09-30T14:14:57.832Z,0.7
2022-09-30T14:16:05.533Z,0.8
2022-09-30T14:17:15.175Z,0.9
2022-09-30T14:18:24.843Z,0.8
2022-09-30T14:19:33.510Z,0.4
2022-09-30T14:20:43.222Z,0.5
2022-09-30T14:21:51.942Z,0.6
2022-09-30T14:23:00.609Z,0.5
2022-09-30T14:24:10.282Z,0.5
2022-09-30T14:25:18.959Z,0.4
2022-09-30T14:26:28.790Z,0.5
2022-09-30T14:27:37.288Z,0.3
2022-09-30T14:28:45.962Z,0.3
2022-09-30T14:29:55.645Z,0.4
2022-09-30T14:31:04.314Z,0.3
2022-09-30T14:32:12.994Z,0.4
2022-09-30T14:33:22.681Z,0.4
2022-09-30T14:34:30.366Z,0.5
2022-09-30T14:35:40.048Z,0.4
2022-09-30T14:36:48.712Z,0.4
2022-09-30T14:37:57.406Z,0.4
2022-09-30T14:39:07.081Z,0.5
2022-09-30T14:40:15.751Z,0.4
2022-09-30T14:41:24.460Z,0.4
2022-09-30T14:42:34.145Z,0.6
2022-09-30T14:43:43.829Z,0.5
2022-09-30T14:44:53.521Z,0.4
2022-09-30T14:46:03.315Z,0.5
2022-09-30T14:47:12.870Z,0.4
2022-09-30T14:48:22.574Z,0.5
2022-09-30T14:49:33.803Z,0.4
2022-09-30T14:50:41.068Z,0.4
2022-09-30T14:51:50.777Z,0.4
2022-09-30T14:52:58.539Z,0.4
2022-09-30T14:54:07.240Z,0.2
2022-09-30T14:55:16.969Z,0.5
2022-09-30T14:56:26.084Z,0.4
2022-09-30T14:57:35.814Z,0.4
2022-09-30T14:58:45.468Z,0.5
2022-09-30T14:59:53.150Z,0.7
2022-09-30T15:01:02.983Z,0.3
2022-09-30T15:02:11.535Z,0.5
2022-09-30T15:03:20.218Z,0.4
2022-09-30T15:04:29.963Z,0.3
2022-09-30T15:05:38.625Z,0.5
2022-09-30T15:06:47.377Z,0.5
2022-09-30T15:07:56.044Z,0.4
2022-09-30T15:09:05.731Z,0.3
2022-09-30T15:10:15.446Z,0.4
2022-09-30T15:11:24.148Z,0.4
2022-09-30T15:12:32.857Z,0.5
2022-09-30T15:13:42.602Z,0.4
2022-09-30T15:14:50.279Z,0.3
2022-09-30T15:15:58.983Z,0.4
2022-09-30T15:17:08.704Z,0.5
2022-09-30T15:18:17.392Z,0.5
2022-09-30T15:19:27.075Z,0.6
2022-09-30T15:20:35.785Z,0.5
2022-09-30T15:21:44.569Z,0.7
2022-09-30T15:22:54.243Z,0.7
2022-09-30T15:24:03.950Z,0.7
2022-09-30T15:25:13.650Z,0.5
2022-09-30T15:26:21.332Z,0.6
2022-09-30T15:27:30.034Z,0.4
2022-09-30T15:28:39.738Z,0.5
2022-09-30T15:29:47.483Z,0.7
2022-09-30T15:30:56.143Z,0.5
2022-09-30T15:32:05.833Z,0.6
2022-09-30T15:33:13.502Z,0.5
2022-09-30T15:34:23.968Z,0.7
2022-09-30T15:35:32.966Z,0.8
2022-09-30T15:36:41.636Z,0.4
2022-09-30T15:37:51.386Z,0.6
2022-09-30T15:39:00.086Z,0.5
2022-09-30T15:40:08.768Z,0.5
2022-09-30T15:41:17.460Z,0.3
2022-09-30T15:42:27.155Z,0.4
2022-09-30T15:43:36.846Z,0.3
2022-09-30T15:44:46.514Z,0.4
2022-09-30T15:45:56.280Z,0.4
2022-09-30T15:47:04.878Z,0.6
2022-09-30T15:48:13.569Z,0.4
2022-09-30T15:49:23.275Z,0.5
2022-09-30T15:50:30.987Z,0.4
2022-09-30T15:51:40.681Z,0.4
2022-09-30T15:52:50.389Z,0.4
2022-09-30T15:54:00.100Z,0.6
2022-09-30T15:55:09.777Z,0.4
2022-09-30T15:56:18.459Z,0.6
2022-09-30T15:57:27.123Z,0.5
2022-09-30T15:58:36.839Z,0.7
2022-09-30T15:59:44.523Z,0.5